Main page
METAR-TAF:

METAR-TAF

Airports :

Gloucestershire Airport

Gloucester, England

latitude: 51-54N, longitude: 002-10W, elevation: 29 m

Current weather observation

The report was made 44 minutes ago, at 15:50 UTC
Wind 2 kt from the West
Temperature 14°C
Humidity 88%
Pressure 1018 hPa
Visibility 10 km or more
Few clouds at a height of 2500 ft
Overcast at a height of 4000 ft
showers in vicinity

METAR: EGBJ 071550Z 27002KT 9999 VCSH FEW025 OVC040 14/12 Q1018

Time: 17:34 (16:34 UTC)

Forecast

The report was made 2 hours and 36 minutes ago, at 13:58 UTC
Forecast valid from 07 at 15 UTC to 07 at 17 UTC
Wind 8 kt from the South/Southwest
Visibility 10 km or more
Scattered clouds at a height of 3000 ft
Temporary
from 07 at 15 UTC to 07 at 17 UTC
Visibility: 6000 m
Broken clouds at a height of 1200 ft
light drizzle

TAF: EGBJ 071358Z 0715/0717 21008KT 9999 SCT030 TEMPO 0715/0717 6000 -DZ BKN012

Weather observations and forecasts of more than 4000 airports (METAR and TAF reports).

The available stations are represented by yellow and red dots on the map.

Hover mouse over dot to see the name of the station.

Then click to see weather observations and forecasts.

To change the map : click on the green buttons with a black cross to zoom in, on the green button with a dash to zoom out, or on the green arrows for adjacent maps.


METAR-TAF: